Terminal Aerodrome Forecast
Issued by NWS

Current Version | Previous Version | Graphics & Text | Print | Product List | Glossary On
Versions: 1 2 3 4 5 6 7 8 9 10 11 12 13 14 15 16 17 18 19 20 21 22 23 24
000
FTUS41 KRLX 272056 AAA
TAFCKB
TAF AMD
KCKB 272056Z 2721/2818 30007KT P6SM SCT050
      TEMPO 2721/2722 BKN050
     FM280100 00000KT P6SM SKC
     FM281200 VRB03KT P6SM SKC=

USA.gov is the U.S. government's official web portal to all federal, state and local government web resources and services.